Martin Challenger — WDB2346 — position and weather

sailwx.info

Track history (hours):
 
Tides and Currents Weather Stations Pressure Air Temp Water Temp Dewpoint Dewpoint Depression Visibility Wind Speed Wind Dir Waves Ship Positions

Martin Challenger

Owner: MARTIN OPERATING PARTNERSHIP LP, VIDOR, TX. More information available from US FCC via Universal Licensing System and Coast Guard Vessel Documentation Center.

Last reported at 2017-Jul-22 05:36 UTC. Time now 2017-Jul-23 00:55 UTC.
Position N 29°47' W 095°06'.

Length 20 m.

MMSI: 366874920.

Date/timePositionNaut miles runAvg speedWind from/ knotsBaromVisibWave heightAir tempDewpointWater temp
2017-Jul-22 05:36N 29°47' W 095°06'0 0.0
2017-Jul-22 05:18N 29°47' W 095°06'0 0.0
2017-Jul-22 04:06N 29°47' W 095°06'0 0.0
2017-Jul-22 03:54N 29°47' W 095°06'  
2017-Jul-19 18:57N 29°47' W 095°06'  
2017-Jul-16 00:27N 29°46' W 095°06'0 0.0
2017-Jul-14 18:59N 29°46' W 095°06'0 0.0
2017-Jul-14 12:45N 29°46' W 095°06'0 1.2
2017-Jul-14 12:30N 29°46' W 095°06'2 3.2
2017-Jul-14 12:00N 29°45' W 095°04'2 4.2
2017-Jul-14 11:26N 29°44' W 095°02'2 4.0
2017-Jul-14 11:01N 29°42' W 095°01'2 4.2
2017-Jul-14 10:31N 29°41' W 094°59'2 4.5
2017-Jul-14 10:00N 29°39' W 094°58'2 5.0
2017-Jul-14 09:31N 29°37' W 094°57'3 5.1
2017-Jul-14 09:01N 29°35' W 094°56'3 5.1
2017-Jul-14 08:31N 29°33' W 094°54'2 4.7
2017-Jul-14 08:00N 29°30' W 094°53'8 3.0
2017-Jul-14 05:14N 29°22' W 094°51'3 0.1
2017-Jul-12 22:32N 29°26' W 094°50'1 4.6
2017-Jul-12 22:18N 29°27' W 094°50'1 4.6
2017-Jul-12 22:00N 29°28' W 094°51'2 4.3
2017-Jul-12 21:31N 29°30' W 094°52'2 4.7
2017-Jul-12 21:01N 29°32' W 094°54'2 4.2
2017-Jul-12 20:30N 29°33' W 094°55'2 4.0
2017-Jul-12 20:01N 29°35' W 094°56'2 4.0
2017-Jul-12 19:31N 29°37' W 094°57'2 4.2
2017-Jul-12 19:01N 29°39' W 094°58'2 4.7
2017-Jul-12 18:31N 29°41' W 094°59'2 4.3
2017-Jul-12 18:01N 29°42' W 095°01'2 3.2
2017-Jul-12 17:29N 29°44' W 095°01'0 0.2
2017-Jul-12 17:00N 29°44' W 095°01'0 0.1
2017-Jul-12 16:29N 29°44' W 095°01'0 0.0
2017-Jul-12 15:59N 29°44' W 095°01'0 0.0
2017-Jul-12 15:29N 29°44' W 095°01'0 0.0
2017-Jul-12 15:01N 29°44' W 095°01'0 0.0
2017-Jul-12 14:00N 29°44' W 095°01'0 0.0
2017-Jul-12 13:30N 29°44' W 095°01'0 0.0
2017-Jul-12 13:01N 29°44' W 095°01'0 0.0
2017-Jul-12 12:31N 29°44' W 095°01'0 0.0
2017-Jul-12 12:01N 29°44' W 095°01'0 0.0
2017-Jul-12 11:30N 29°44' W 095°01'0 0.0
2017-Jul-12 11:01N 29°44' W 095°01'0 0.0
2017-Jul-12 10:31N 29°44' W 095°01'0 0.0
2017-Jul-12 10:00N 29°44' W 095°01'0 0.0
2017-Jul-12 09:30N 29°44' W 095°01'0 0.0
2017-Jul-12 09:00N 29°44' W 095°01'0 0.0
2017-Jul-12 08:30N 29°44' W 095°01'0 0.0
2017-Jul-12 08:00N 29°44' W 095°01'0 0.0
2017-Jul-12 07:30N 29°44' W 095°01'0 0.0
2017-Jul-12 07:01N 29°44' W 095°01'0 0.0
2017-Jul-12 06:31N 29°44' W 095°01'0 0.0
2017-Jul-12 06:00N 29°44' W 095°01'  
Track history (hours):
 
Tides and Currents Weather Stations Pressure Air Temp Water Temp Dewpoint Dewpoint Depression Visibility Wind Speed Wind Dir Waves Ship Positions

Martin Challenger

Owner: MARTIN OPERATING PARTNERSHIP LP, VIDOR, TX. More information available from US FCC via Universal Licensing System and Coast Guard Vessel Documentation Center.

Last reported at 2017-Jul-22 05:36 UTC. Time now 2017-Jul-23 00:55 UTC.
Position N 29°47' W 095°06'.

Length 20 m.

MMSI: 366874920.

Date/timePositionNaut miles runAvg speedWind from/ knotsBaromVisibWave heightAir tempDewpointWater temp
2017-Jul-22 05:36N 29°47' W 095°06'0 0.0
2017-Jul-22 05:18N 29°47' W 095°06'0 0.0
2017-Jul-22 04:06N 29°47' W 095°06'0 0.0
2017-Jul-22 03:54N 29°47' W 095°06'  
2017-Jul-19 18:57N 29°47' W 095°06'  
2017-Jul-16 00:27N 29°46' W 095°06'0 0.0
2017-Jul-14 18:59N 29°46' W 095°06'0 0.0
2017-Jul-14 12:45N 29°46' W 095°06'0 1.2
2017-Jul-14 12:30N 29°46' W 095°06'2 3.2
2017-Jul-14 12:00N 29°45' W 095°04'2 4.2
2017-Jul-14 11:26N 29°44' W 095°02'2 4.0
2017-Jul-14 11:01N 29°42' W 095°01'2 4.2
2017-Jul-14 10:31N 29°41' W 094°59'2 4.5
2017-Jul-14 10:00N 29°39' W 094°58'2 5.0
2017-Jul-14 09:31N 29°37' W 094°57'3 5.1
2017-Jul-14 09:01N 29°35' W 094°56'3 5.1
2017-Jul-14 08:31N 29°33' W 094°54'2 4.7
2017-Jul-14 08:00N 29°30' W 094°53'8 3.0
2017-Jul-14 05:14N 29°22' W 094°51'3 0.1
2017-Jul-12 22:32N 29°26' W 094°50'1 4.6
2017-Jul-12 22:18N 29°27' W 094°50'1 4.6
2017-Jul-12 22:00N 29°28' W 094°51'2 4.3
2017-Jul-12 21:31N 29°30' W 094°52'2 4.7
2017-Jul-12 21:01N 29°32' W 094°54'2 4.2
2017-Jul-12 20:30N 29°33' W 094°55'2 4.0
2017-Jul-12 20:01N 29°35' W 094°56'2 4.0
2017-Jul-12 19:31N 29°37' W 094°57'2 4.2
2017-Jul-12 19:01N 29°39' W 094°58'2 4.7
2017-Jul-12 18:31N 29°41' W 094°59'2 4.3
2017-Jul-12 18:01N 29°42' W 095°01'2 3.2
2017-Jul-12 17:29N 29°44' W 095°01'0 0.2
2017-Jul-12 17:00N 29°44' W 095°01'0 0.1
2017-Jul-12 16:29N 29°44' W 095°01'0 0.0
2017-Jul-12 15:59N 29°44' W 095°01'0 0.0
2017-Jul-12 15:29N 29°44' W 095°01'0 0.0
2017-Jul-12 15:01N 29°44' W 095°01'0 0.0
2017-Jul-12 14:00N 29°44' W 095°01'0 0.0
2017-Jul-12 13:30N 29°44' W 095°01'0 0.0
2017-Jul-12 13:01N 29°44' W 095°01'0 0.0
2017-Jul-12 12:31N 29°44' W 095°01'0 0.0
2017-Jul-12 12:01N 29°44' W 095°01'0 0.0
2017-Jul-12 11:30N 29°44' W 095°01'0 0.0
2017-Jul-12 11:01N 29°44' W 095°01'0 0.0
2017-Jul-12 10:31N 29°44' W 095°01'0 0.0
2017-Jul-12 10:00N 29°44' W 095°01'0 0.0
2017-Jul-12 09:30N 29°44' W 095°01'0 0.0
2017-Jul-12 09:00N 29°44' W 095°01'0 0.0
2017-Jul-12 08:30N 29°44' W 095°01'0 0.0
2017-Jul-12 08:00N 29°44' W 095°01'0 0.0
2017-Jul-12 07:30N 29°44' W 095°01'0 0.0
2017-Jul-12 07:01N 29°44' W 095°01'0 0.0
2017-Jul-12 06:31N 29°44' W 095°01'0 0.0
2017-Jul-12 06:00N 29°44' W 095°01'  

Dump ship's entire track history